sensor_id;sensor_type;location;lat;lon;timestamp;temperature;humidity
12426;DHT22;6277;49.824;9.562;2023-03-04T00:01:14;1.90;55.90
12426;DHT22;6277;49.824;9.562;2023-03-04T00:03:40;1.90;56.00
12426;DHT22;6277;49.824;9.562;2023-03-04T00:06:06;1.90;56.00
12426;DHT22;6277;49.824;9.562;2023-03-04T00:08:31;1.90;56.00
12426;DHT22;6277;49.824;9.562;2023-03-04T00:10:57;1.80;56.00
12426;DHT22;6277;49.824;9.562;2023-03-04T00:13:22;1.80;56.10
12426;DHT22;6277;49.824;9.562;2023-03-04T00:15:49;1.80;56.10
12426;DHT22;6277;49.824;9.562;2023-03-04T00:18:14;1.80;56.10
12426;DHT22;6277;49.824;9.562;2023-03-04T00:20:40;1.80;56.10
12426;DHT22;6277;49.824;9.562;2023-03-04T00:23:06;1.80;56.20
12426;DHT22;6277;49.824;9.562;2023-03-04T00:25:32;1.80;56.10
12426;DHT22;6277;49.824;9.562;2023-03-04T00:27:58;1.80;56.20
12426;DHT22;6277;49.824;9.562;2023-03-04T00:30:24;1.70;56.20
12426;DHT22;6277;49.824;9.562;2023-03-04T00:32:49;1.70;56.20
12426;DHT22;6277;49.824;9.562;2023-03-04T00:35:15;1.70;56.20
12426;DHT22;6277;49.824;9.562;2023-03-04T00:37:41;1.70;56.30
12426;DHT22;6277;49.824;9.562;2023-03-04T00:40:07;1.70;56.30
12426;DHT22;6277;49.824;9.562;2023-03-04T00:42:33;1.70;56.30
12426;DHT22;6277;49.824;9.562;2023-03-04T00:44:58;1.70;56.80
12426;DHT22;6277;49.824;9.562;2023-03-04T00:47:24;1.60;56.30
12426;DHT22;6277;49.824;9.562;2023-03-04T00:49:49;1.60;56.30
12426;DHT22;6277;49.824;9.562;2023-03-04T00:52:15;1.60;56.30
12426;DHT22;6277;49.824;9.562;2023-03-04T00:54:40;1.60;56.30
12426;DHT22;6277;49.824;9.562;2023-03-04T00:57:06;1.60;56.30
12426;DHT22;6277;49.824;9.562;2023-03-04T00:59:31;1.50;56.30
12426;DHT22;6277;49.824;9.562;2023-03-04T01:01:57;1.50;56.30
12426;DHT22;6277;49.824;9.562;2023-03-04T01:04:23;1.50;56.30
12426;DHT22;6277;49.824;9.562;2023-03-04T01:06:48;1.40;56.30
12426;DHT22;6277;49.824;9.562;2023-03-04T01:09:14;1.40;56.30
12426;DHT22;6277;49.824;9.562;2023-03-04T01:11:39;1.40;56.90
12426;DHT22;6277;49.824;9.562;2023-03-04T01:14:05;1.30;56.90
12426;DHT22;6277;49.824;9.562;2023-03-04T01:16:30;1.30;56.50
12426;DHT22;6277;49.824;9.562;2023-03-04T01:18:56;1.30;56.60
12426;DHT22;6277;49.824;9.562;2023-03-04T01:21:21;1.30;56.60
12426;DHT22;6277;49.824;9.562;2023-03-04T01:23:47;1.30;56.60
12426;DHT22;6277;49.824;9.562;2023-03-04T01:26:13;1.30;56.60
12426;DHT22;6277;49.824;9.562;2023-03-04T01:28:38;1.20;56.60
12426;DHT22;6277;49.824;9.562;2023-03-04T01:31:04;1.20;56.70
12426;DHT22;6277;49.824;9.562;2023-03-04T01:33:30;1.20;56.70
12426;DHT22;6277;49.824;9.562;2023-03-04T01:35:56;1.20;56.80
12426;DHT22;6277;49.824;9.562;2023-03-04T01:38:22;1.20;56.80
12426;DHT22;6277;49.824;9.562;2023-03-04T01:40:48;1.20;56.80
12426;DHT22;6277;49.824;9.562;2023-03-04T01:43:19;1.10;56.80
12426;DHT22;6277;49.824;9.562;2023-03-04T01:45:48;1.10;57.00
12426;DHT22;6277;49.824;9.562;2023-03-04T01:48:17;1.10;57.00
12426;DHT22;6277;49.824;9.562;2023-03-04T01:50:43;1.00;57.00
12426;DHT22;6277;49.824;9.562;2023-03-04T01:53:21;1.00;57.00
12426;DHT22;6277;49.824;9.562;2023-03-04T01:55:47;1.00;57.10
12426;DHT22;6277;49.824;9.562;2023-03-04T01:58:13;1.00;56.90
12426;DHT22;6277;49.824;9.562;2023-03-04T02:00:39;1.00;56.90
12426;DHT22;6277;49.824;9.562;2023-03-04T02:03:10;0.90;57.00
12426;DHT22;6277;49.824;9.562;2023-03-04T02:05:39;0.90;57.10
12426;DHT22;6277;49.824;9.562;2023-03-04T02:08:06;0.90;57.10
12426;DHT22;6277;49.824;9.562;2023-03-04T02:10:32;0.80;57.00
12426;DHT22;6277;49.824;9.562;2023-03-04T02:12:59;0.80;57.10
12426;DHT22;6277;49.824;9.562;2023-03-04T02:15:25;0.80;57.30
12426;DHT22;6277;49.824;9.562;2023-03-04T02:17:51;0.80;57.20
12426;DHT22;6277;49.824;9.562;2023-03-04T02:20:19;0.80;57.30
12426;DHT22;6277;49.824;9.562;2023-03-04T02:23:32;0.80;57.30
12426;DHT22;6277;49.824;9.562;2023-03-04T02:26:12;0.80;58.10
12426;DHT22;6277;49.824;9.562;2023-03-04T02:28:38;0.80;58.00
12426;DHT22;6277;49.824;9.562;2023-03-04T02:31:03;0.90;58.50
12426;DHT22;6277;49.824;9.562;2023-03-04T02:33:29;0.90;58.70
12426;DHT22;6277;49.824;9.562;2023-03-04T02:35:55;1.00;59.00
12426;DHT22;6277;49.824;9.562;2023-03-04T02:38:20;1.20;59.10
12426;DHT22;6277;49.824;9.562;2023-03-04T02:40:48;1.30;59.20
12426;DHT22;6277;49.824;9.562;2023-03-04T02:43:15;1.50;59.70
12426;DHT22;6277;49.824;9.562;2023-03-04T02:45:44;1.60;59.50
12426;DHT22;6277;49.824;9.562;2023-03-04T02:48:10;1.80;59.60
12426;DHT22;6277;49.824;9.562;2023-03-04T02:50:41;2.00;59.50
12426;DHT22;6277;49.824;9.562;2023-03-04T02:53:08;2.10;59.60
12426;DHT22;6277;49.824;9.562;2023-03-04T02:55:34;2.30;59.50
12426;DHT22;6277;49.824;9.562;2023-03-04T02:57:59;2.40;59.50
12426;DHT22;6277;49.824;9.562;2023-03-04T03:00:25;2.60;59.50
12426;DHT22;6277;49.824;9.562;2023-03-04T03:02:51;2.70;59.50
12426;DHT22;6277;49.824;9.562;2023-03-04T03:05:18;2.80;59.40
12426;DHT22;6277;49.824;9.562;2023-03-04T03:07:44;3.00;59.40
12426;DHT22;6277;49.824;9.562;2023-03-04T03:10:10;3.10;59.30
12426;DHT22;6277;49.824;9.562;2023-03-04T03:12:36;3.20;59.20
12426;DHT22;6277;49.824;9.562;2023-03-04T03:15:01;3.30;59.20
12426;DHT22;6277;49.824;9.562;2023-03-04T03:17:27;3.40;59.10
12426;DHT22;6277;49.824;9.562;2023-03-04T03:19:52;3.50;59.00
12426;DHT22;6277;49.824;9.562;2023-03-04T03:22:18;3.60;59.00
12426;DHT22;6277;49.824;9.562;2023-03-04T03:24:43;3.70;58.90
12426;DHT22;6277;49.824;9.562;2023-03-04T03:27:09;3.70;58.80
12426;DHT22;6277;49.824;9.562;2023-03-04T03:29:34;3.80;58.70
12426;DHT22;6277;49.824;9.562;2023-03-04T03:32:00;3.80;58.70
12426;DHT22;6277;49.824;9.562;2023-03-04T03:34:25;3.90;58.70
12426;DHT22;6277;49.824;9.562;2023-03-04T03:36:51;3.90;58.70
12426;DHT22;6277;49.824;9.562;2023-03-04T03:39:16;3.90;58.70
12426;DHT22;6277;49.824;9.562;2023-03-04T03:41:42;4.00;58.70
12426;DHT22;6277;49.824;9.562;2023-03-04T03:44:07;4.00;58.70
12426;DHT22;6277;49.824;9.562;2023-03-04T03:46:33;4.10;58.80
12426;DHT22;6277;49.824;9.562;2023-03-04T03:49:00;4.10;58.80
12426;DHT22;6277;49.824;9.562;2023-03-04T03:51:25;4.20;58.70
12426;DHT22;6277;49.824;9.562;2023-03-04T03:53:51;4.20;58.70
12426;DHT22;6277;49.824;9.562;2023-03-04T03:56:17;4.30;58.80
12426;DHT22;6277;49.824;9.562;2023-03-04T03:58:42;4.30;58.80
12426;DHT22;6277;49.824;9.562;2023-03-04T04:01:08;4.40;58.70
12426;DHT22;6277;49.824;9.562;2023-03-04T04:03:34;4.40;58.70
12426;DHT22;6277;49.824;9.562;2023-03-04T04:05:59;4.50;58.90
12426;DHT22;6277;49.824;9.562;2023-03-04T04:08:25;4.50;58.80
12426;DHT22;6277;49.824;9.562;2023-03-04T04:10:51;4.60;58.80
12426;DHT22;6277;49.824;9.562;2023-03-04T04:13:16;4.60;58.80
12426;DHT22;6277;49.824;9.562;2023-03-04T04:15:42;4.60;58.80
12426;DHT22;6277;49.824;9.562;2023-03-04T04:18:08;4.70;58.80
12426;DHT22;6277;49.824;9.562;2023-03-04T04:20:33;4.70;58.70
12426;DHT22;6277;49.824;9.562;2023-03-04T04:22:59;4.80;58.70
12426;DHT22;6277;49.824;9.562;2023-03-04T04:25:25;4.80;58.70
12426;DHT22;6277;49.824;9.562;2023-03-04T04:27:50;4.80;58.70
12426;DHT22;6277;49.824;9.562;2023-03-04T04:30:16;4.80;58.50
12426;DHT22;6277;49.824;9.562;2023-03-04T04:32:42;4.90;58.50
12426;DHT22;6277;49.824;9.562;2023-03-04T04:35:08;4.90;58.60
12426;DHT22;6277;49.824;9.562;2023-03-04T04:37:33;4.90;58.50
12426;DHT22;6277;49.824;9.562;2023-03-04T04:39:59;4.90;58.60
12426;DHT22;6277;49.824;9.562;2023-03-04T04:42:24;4.90;58.60
12426;DHT22;6277;49.824;9.562;2023-03-04T04:44:50;4.90;58.70
12426;DHT22;6277;49.824;9.562;2023-03-04T04:47:16;4.90;58.50
12426;DHT22;6277;49.824;9.562;2023-03-04T04:49:42;4.90;58.70
12426;DHT22;6277;49.824;9.562;2023-03-04T04:52:08;4.90;58.60
12426;DHT22;6277;49.824;9.562;2023-03-04T04:54:33;4.90;58.60
12426;DHT22;6277;49.824;9.562;2023-03-04T04:56:59;4.90;58.60
12426;DHT22;6277;49.824;9.562;2023-03-04T04:59:24;4.90;58.60
12426;DHT22;6277;49.824;9.562;2023-03-04T05:01:50;4.90;58.70
12426;DHT22;6277;49.824;9.562;2023-03-04T05:04:15;4.90;58.60
12426;DHT22;6277;49.824;9.562;2023-03-04T05:06:41;4.90;58.50
12426;DHT22;6277;49.824;9.562;2023-03-04T05:09:06;4.90;58.50
12426;DHT22;6277;49.824;9.562;2023-03-04T05:11:32;4.90;58.50
12426;DHT22;6277;49.824;9.562;2023-03-04T05:13:58;4.90;58.60
12426;DHT22;6277;49.824;9.562;2023-03-04T05:16:23;4.90;58.60
12426;DHT22;6277;49.824;9.562;2023-03-04T05:18:49;4.90;58.50
12426;DHT22;6277;49.824;9.562;2023-03-04T05:21:14;4.90;58.40
12426;DHT22;6277;49.824;9.562;2023-03-04T05:23:41;4.90;58.40
12426;DHT22;6277;49.824;9.562;2023-03-04T05:26:09;4.90;58.40
12426;DHT22;6277;49.824;9.562;2023-03-04T05:28:35;5.00;58.50
12426;DHT22;6277;49.824;9.562;2023-03-04T05:31:02;4.90;58.40
12426;DHT22;6277;49.824;9.562;2023-03-04T05:33:27;5.00;58.50
12426;DHT22;6277;49.824;9.562;2023-03-04T05:35:53;5.00;58.50
12426;DHT22;6277;49.824;9.562;2023-03-04T05:38:19;5.00;58.60
12426;DHT22;6277;49.824;9.562;2023-03-04T05:40:46;5.00;58.50
12426;DHT22;6277;49.824;9.562;2023-03-04T05:43:11;5.00;58.50
12426;DHT22;6277;49.824;9.562;2023-03-04T05:45:38;4.90;58.40
12426;DHT22;6277;49.824;9.562;2023-03-04T05:48:04;5.00;58.40
12426;DHT22;6277;49.824;9.562;2023-03-04T05:50:30;5.00;58.40
12426;DHT22;6277;49.824;9.562;2023-03-04T05:52:55;5.00;58.50
12426;DHT22;6277;49.824;9.562;2023-03-04T05:55:21;5.00;58.60
12426;DHT22;6277;49.824;9.562;2023-03-04T05:57:47;5.00;58.60
12426;DHT22;6277;49.824;9.562;2023-03-04T06:00:13;5.00;58.50
12426;DHT22;6277;49.824;9.562;2023-03-04T06:02:39;5.00;58.60
12426;DHT22;6277;49.824;9.562;2023-03-04T06:05:06;4.90;58.40
12426;DHT22;6277;49.824;9.562;2023-03-04T06:07:31;4.90;58.50
12426;DHT22;6277;49.824;9.562;2023-03-04T06:09:57;4.90;58.40
12426;DHT22;6277;49.824;9.562;2023-03-04T06:12:23;4.90;58.50
12426;DHT22;6277;49.824;9.562;2023-03-04T06:14:49;4.90;58.60
12426;DHT22;6277;49.824;9.562;2023-03-04T06:17:14;4.90;58.50
12426;DHT22;6277;49.824;9.562;2023-03-04T06:19:40;4.90;58.60
12426;DHT22;6277;49.824;9.562;2023-03-04T06:22:07;4.90;58.60
12426;DHT22;6277;49.824;9.562;2023-03-04T06:24:33;4.90;58.60
12426;DHT22;6277;49.824;9.562;2023-03-04T06:26:58;4.90;58.60
12426;DHT22;6277;49.824;9.562;2023-03-04T06:29:24;4.90;58.60
12426;DHT22;6277;49.824;9.562;2023-03-04T06:31:50;4.90;58.60
12426;DHT22;6277;49.824;9.562;2023-03-04T06:34:15;4.90;58.60
12426;DHT22;6277;49.824;9.562;2023-03-04T06:36:41;5.00;58.70
12426;DHT22;6277;49.824;9.562;2023-03-04T06:39:07;5.00;58.60
12426;DHT22;6277;49.824;9.562;2023-03-04T06:41:33;5.00;58.60
12426;DHT22;6277;49.824;9.562;2023-03-04T06:43:58;5.00;58.60
12426;DHT22;6277;49.824;9.562;2023-03-04T06:46:24;5.00;58.70
12426;DHT22;6277;49.824;9.562;2023-03-04T06:48:49;5.10;58.60
12426;DHT22;6277;49.824;9.562;2023-03-04T06:51:15;5.10;58.60
12426;DHT22;6277;49.824;9.562;2023-03-04T06:53:41;5.10;58.70
12426;DHT22;6277;49.824;9.562;2023-03-04T06:56:09;5.10;58.60
12426;DHT22;6277;49.824;9.562;2023-03-04T06:58:36;5.10;58.60
12426;DHT22;6277;49.824;9.562;2023-03-04T07:01:19;5.10;58.60
12426;DHT22;6277;49.824;9.562;2023-03-04T07:03:47;5.10;58.80
12426;DHT22;6277;49.824;9.562;2023-03-04T07:06:14;5.10;58.60
12426;DHT22;6277;49.824;9.562;2023-03-04T07:08:41;5.20;58.60
12426;DHT22;6277;49.824;9.562;2023-03-04T07:11:07;5.20;58.60
12426;DHT22;6277;49.824;9.562;2023-03-04T07:13:33;5.30;58.70
12426;DHT22;6277;49.824;9.562;2023-03-04T07:16:12;5.30;58.60
12426;DHT22;6277;49.824;9.562;2023-03-04T07:18:39;5.40;58.70
12426;DHT22;6277;49.824;9.562;2023-03-04T07:21:05;5.40;58.60
12426;DHT22;6277;49.824;9.562;2023-03-04T07:23:31;5.50;58.60
12426;DHT22;6277;49.824;9.562;2023-03-04T07:25:56;5.50;58.60
12426;DHT22;6277;49.824;9.562;2023-03-04T07:28:22;5.60;58.60
12426;DHT22;6277;49.824;9.562;2023-03-04T07:30:47;5.70;58.60
12426;DHT22;6277;49.824;9.562;2023-03-04T07:33:13;5.80;58.70
12426;DHT22;6277;49.824;9.562;2023-03-04T07:35:39;5.80;58.60
12426;DHT22;6277;49.824;9.562;2023-03-04T07:38:05;5.90;58.60
12426;DHT22;6277;49.824;9.562;2023-03-04T07:40:30;6.00;58.50
12426;DHT22;6277;49.824;9.562;2023-03-04T07:42:56;6.00;58.50
12426;DHT22;6277;49.824;9.562;2023-03-04T07:45:22;6.10;58.50
12426;DHT22;6277;49.824;9.562;2023-03-04T07:47:48;6.20;58.50
12426;DHT22;6277;49.824;9.562;2023-03-04T07:50:15;6.20;58.30
12426;DHT22;6277;49.824;9.562;2023-03-04T07:52:43;6.30;58.40
12426;DHT22;6277;49.824;9.562;2023-03-04T07:55:10;6.30;58.30
12426;DHT22;6277;49.824;9.562;2023-03-04T07:57:43;6.40;58.30
12426;DHT22;6277;49.824;9.562;2023-03-04T08:00:11;6.40;58.30
12426;DHT22;6277;49.824;9.562;2023-03-04T08:02:37;6.40;58.80
12426;DHT22;6277;49.824;9.562;2023-03-04T08:05:02;6.50;58.30
12426;DHT22;6277;49.824;9.562;2023-03-04T08:07:28;6.50;58.10
12426;DHT22;6277;49.824;9.562;2023-03-04T08:09:53;6.60;58.10
12426;DHT22;6277;49.824;9.562;2023-03-04T08:12:19;6.60;58.00
12426;DHT22;6277;49.824;9.562;2023-03-04T08:14:45;6.60;58.00
12426;DHT22;6277;49.824;9.562;2023-03-04T08:17:10;6.60;58.00
12426;DHT22;6277;49.824;9.562;2023-03-04T08:19:39;6.70;58.10
12426;DHT22;6277;49.824;9.562;2023-03-04T08:22:04;6.70;58.00
12426;DHT22;6277;49.824;9.562;2023-03-04T08:24:30;6.70;57.90
12426;DHT22;6277;49.824;9.562;2023-03-04T08:26:56;6.70;57.90
12426;DHT22;6277;49.824;9.562;2023-03-04T08:29:23;6.70;57.80
12426;DHT22;6277;49.824;9.562;2023-03-04T08:31:50;6.70;57.90
12426;DHT22;6277;49.824;9.562;2023-03-04T08:34:18;6.70;57.90
12426;DHT22;6277;49.824;9.562;2023-03-04T08:36:44;6.70;57.90
12426;DHT22;6277;49.824;9.562;2023-03-04T08:39:12;6.80;58.00
12426;DHT22;6277;49.824;9.562;2023-03-04T08:41:38;6.80;58.00
12426;DHT22;6277;49.824;9.562;2023-03-04T08:44:04;6.90;57.90
12426;DHT22;6277;49.824;9.562;2023-03-04T08:46:32;6.90;57.80
12426;DHT22;6277;49.824;9.562;2023-03-04T08:48:58;6.90;57.70
12426;DHT22;6277;49.824;9.562;2023-03-04T08:51:23;6.90;57.60
12426;DHT22;6277;49.824;9.562;2023-03-04T08:53:49;6.80;57.60
12426;DHT22;6277;49.824;9.562;2023-03-04T08:56:15;6.80;57.60
12426;DHT22;6277;49.824;9.562;2023-03-04T08:58:41;6.80;57.50
12426;DHT22;6277;49.824;9.562;2023-03-04T09:01:08;6.80;57.60
12426;DHT22;6277;49.824;9.562;2023-03-04T09:03:35;6.80;57.60
12426;DHT22;6277;49.824;9.562;2023-03-04T09:06:02;6.80;57.70
12426;DHT22;6277;49.824;9.562;2023-03-04T09:08:28;6.80;57.70
12426;DHT22;6277;49.824;9.562;2023-03-04T09:10:54;6.90;57.70
12426;DHT22;6277;49.824;9.562;2023-03-04T09:13:21;6.90;57.70
12426;DHT22;6277;49.824;9.562;2023-03-04T09:15:49;6.90;57.70
12426;DHT22;6277;49.824;9.562;2023-03-04T09:18:16;7.00;57.70
12426;DHT22;6277;49.824;9.562;2023-03-04T09:20:42;7.00;57.70
12426;DHT22;6277;49.824;9.562;2023-03-04T09:23:08;7.10;57.70
12426;DHT22;6277;49.824;9.562;2023-03-04T09:25:34;7.10;57.80
12426;DHT22;6277;49.824;9.562;2023-03-04T09:28:00;7.10;57.60
12426;DHT22;6277;49.824;9.562;2023-03-04T09:30:26;7.20;57.50
12426;DHT22;6277;49.824;9.562;2023-03-04T09:32:51;7.20;57.60
12426;DHT22;6277;49.824;9.562;2023-03-04T09:35:17;7.30;57.70
12426;DHT22;6277;49.824;9.562;2023-03-04T09:37:42;7.30;57.60
12426;DHT22;6277;49.824;9.562;2023-03-04T09:40:17;7.40;57.50
12426;DHT22;6277;49.824;9.562;2023-03-04T09:42:46;7.40;57.50
12426;DHT22;6277;49.824;9.562;2023-03-04T09:45:16;7.50;57.60
12426;DHT22;6277;49.824;9.562;2023-03-04T09:47:43;7.50;57.60
12426;DHT22;6277;49.824;9.562;2023-03-04T09:50:11;7.60;57.50
12426;DHT22;6277;49.824;9.562;2023-03-04T09:55:34;7.80;57.40
12426;DHT22;6277;49.824;9.562;2023-03-04T10:01:25;7.90;57.20
12426;DHT22;6277;49.824;9.562;2023-03-04T10:04:08;8.00;56.90
12426;DHT22;6277;49.824;9.562;2023-03-04T10:06:39;8.00;56.80
12426;DHT22;6277;49.824;9.562;2023-03-04T10:09:19;8.00;56.90
12426;DHT22;6277;49.824;9.562;2023-03-04T10:11:49;8.00;56.90
12426;DHT22;6277;49.824;9.562;2023-03-04T10:14:29;8.00;56.90
12426;DHT22;6277;49.824;9.562;2023-03-04T10:19:42;8.10;56.60
12426;DHT22;6277;49.824;9.562;2023-03-04T10:24:41;8.10;56.70
12426;DHT22;6277;49.824;9.562;2023-03-04T10:27:13;8.10;56.80
12426;DHT22;6277;49.824;9.562;2023-03-04T10:29:39;8.20;56.80
12426;DHT22;6277;49.824;9.562;2023-03-04T10:32:11;8.20;56.90
12426;DHT22;6277;49.824;9.562;2023-03-04T10:34:36;8.20;56.90
12426;DHT22;6277;49.824;9.562;2023-03-04T10:37:04;8.30;56.90
12426;DHT22;6277;49.824;9.562;2023-03-04T10:39:43;8.30;56.90
12426;DHT22;6277;49.824;9.562;2023-03-04T10:44:50;8.30;56.60
12426;DHT22;6277;49.824;9.562;2023-03-04T10:47:16;8.40;56.70
12426;DHT22;6277;49.824;9.562;2023-03-04T10:49:52;8.40;56.80
12426;DHT22;6277;49.824;9.562;2023-03-04T10:52:45;8.40;57.30
12426;DHT22;6277;49.824;9.562;2023-03-04T10:55:18;8.40;56.50
12426;DHT22;6277;49.824;9.562;2023-03-04T10:57:47;8.50;56.60
12426;DHT22;6277;49.824;9.562;2023-03-04T11:02:44;8.50;56.30
12426;DHT22;6277;49.824;9.562;2023-03-04T11:05:21;8.50;56.30
12426;DHT22;6277;49.824;9.562;2023-03-04T11:07:59;8.50;56.00
12426;DHT22;6277;49.824;9.562;2023-03-04T11:10:39;8.50;56.20
12426;DHT22;6277;49.824;9.562;2023-03-04T11:13:12;8.50;56.40
12426;DHT22;6277;49.824;9.562;2023-03-04T11:15:59;8.40;55.90
12426;DHT22;6277;49.824;9.562;2023-03-04T11:21:05;8.40;56.10
12426;DHT22;6277;49.824;9.562;2023-03-04T11:23:49;8.40;56.20
12426;DHT22;6277;49.824;9.562;2023-03-04T11:26:20;8.40;56.30
12426;DHT22;6277;49.824;9.562;2023-03-04T11:31:19;8.40;56.30
12426;DHT22;6277;49.824;9.562;2023-03-04T11:33:56;8.30;56.90
12426;DHT22;6277;49.824;9.562;2023-03-04T11:37:05;8.30;56.40
12426;DHT22;6277;49.824;9.562;2023-03-04T11:40:20;8.40;56.10
12426;DHT22;6277;49.824;9.562;2023-03-04T11:42:46;8.40;56.30
12426;DHT22;6277;49.824;9.562;2023-03-04T11:45:16;8.40;56.20
12426;DHT22;6277;49.824;9.562;2023-03-04T11:50:34;8.40;56.40
12426;DHT22;6277;49.824;9.562;2023-03-04T11:55:57;8.50;56.30
12426;DHT22;6277;49.824;9.562;2023-03-04T11:58:53;8.50;56.20
12426;DHT22;6277;49.824;9.562;2023-03-04T12:01:25;8.50;56.20
12426;DHT22;6277;49.824;9.562;2023-03-04T12:04:10;8.50;56.40
12426;DHT22;6277;49.824;9.562;2023-03-04T12:09:39;8.50;56.30
12426;DHT22;6277;49.824;9.562;2023-03-04T12:12:26;8.50;56.30
12426;DHT22;6277;49.824;9.562;2023-03-04T12:15:19;8.50;56.20
12426;DHT22;6277;49.824;9.562;2023-03-04T12:20:43;8.50;56.30
12426;DHT22;6277;49.824;9.562;2023-03-04T12:23:25;8.60;56.40
12426;DHT22;6277;49.824;9.562;2023-03-04T12:31:41;8.60;56.10
12426;DHT22;6277;49.824;9.562;2023-03-04T12:36:54;8.50;55.90
12426;DHT22;6277;49.824;9.562;2023-03-04T12:39:28;8.50;56.40
12426;DHT22;6277;49.824;9.562;2023-03-04T12:47:59;8.40;56.30
12426;DHT22;6277;49.824;9.562;2023-03-04T12:51:00;8.40;56.50
12426;DHT22;6277;49.824;9.562;2023-03-04T12:53:42;8.40;56.30
12426;DHT22;6277;49.824;9.562;2023-03-04T12:57:20;8.50;56.40
12426;DHT22;6277;49.824;9.562;2023-03-04T12:59:19;8.50;56.30
12426;DHT22;6277;49.824;9.562;2023-03-04T13:02:17;8.50;56.40
12426;DHT22;6277;49.824;9.562;2023-03-04T13:10:16;8.60;56.40
12426;DHT22;6277;49.824;9.562;2023-03-04T13:12:54;8.60;56.50
12426;DHT22;6277;49.824;9.562;2023-03-04T13:17:53;8.70;56.60
12426;DHT22;6277;49.824;9.562;2023-03-04T13:20:36;8.70;56.40
12426;DHT22;6277;49.824;9.562;2023-03-04T13:23:24;8.80;56.30
12426;DHT22;6277;49.824;9.562;2023-03-04T13:28:29;8.80;56.50
12426;DHT22;6277;49.824;9.562;2023-03-04T13:41:15;9.20;56.70
12426;DHT22;6277;49.824;9.562;2023-03-04T13:43:46;9.30;56.60
12426;DHT22;6277;49.824;9.562;2023-03-04T13:51:22;9.40;56.30
12426;DHT22;6277;49.824;9.562;2023-03-04T13:56:36;9.40;56.10
12426;DHT22;6277;49.824;9.562;2023-03-04T13:59:28;9.30;56.00
12426;DHT22;6277;49.824;9.562;2023-03-04T14:04:36;9.20;56.00
12426;DHT22;6277;49.824;9.562;2023-03-04T14:07:23;9.20;56.10
12426;DHT22;6277;49.824;9.562;2023-03-04T14:12:47;9.10;56.10
12426;DHT22;6277;49.824;9.562;2023-03-04T14:17:51;9.10;56.30
12426;DHT22;6277;49.824;9.562;2023-03-04T14:20:24;9.10;56.40
12426;DHT22;6277;49.824;9.562;2023-03-04T14:22:51;9.10;56.40
12426;DHT22;6277;49.824;9.562;2023-03-04T14:25:28;9.10;56.30
12426;DHT22;6277;49.824;9.562;2023-03-04T14:28:15;9.10;56.40
12426;DHT22;6277;49.824;9.562;2023-03-04T14:30:41;9.10;56.30
12426;DHT22;6277;49.824;9.562;2023-03-04T14:33:13;9.10;56.30
12426;DHT22;6277;49.824;9.562;2023-03-04T14:35:45;9.00;56.20
12426;DHT22;6277;49.824;9.562;2023-03-04T14:38:36;9.00;56.20
12426;DHT22;6277;49.824;9.562;2023-03-04T14:41:15;9.00;56.20
12426;DHT22;6277;49.824;9.562;2023-03-04T14:43:56;8.90;56.20
12426;DHT22;6277;49.824;9.562;2023-03-04T14:46:23;8.90;56.20
12426;DHT22;6277;49.824;9.562;2023-03-04T14:48:52;8.90;56.30
12426;DHT22;6277;49.824;9.562;2023-03-04T14:51:31;8.80;56.30
12426;DHT22;6277;49.824;9.562;2023-03-04T14:53:58;8.80;56.30
12426;DHT22;6277;49.824;9.562;2023-03-04T14:56:32;8.70;56.30
12426;DHT22;6277;49.824;9.562;2023-03-04T14:58:58;8.70;56.40
12426;DHT22;6277;49.824;9.562;2023-03-04T15:01:33;8.70;56.40
12426;DHT22;6277;49.824;9.562;2023-03-04T15:04:05;8.70;56.50
12426;DHT22;6277;49.824;9.562;2023-03-04T15:06:33;8.70;56.50
12426;DHT22;6277;49.824;9.562;2023-03-04T15:09:18;8.70;56.50
12426;DHT22;6277;49.824;9.562;2023-03-04T15:14:45;8.60;56.30
12426;DHT22;6277;49.824;9.562;2023-03-04T15:17:40;8.60;56.40
12426;DHT22;6277;49.824;9.562;2023-03-04T15:22:34;8.50;56.40
12426;DHT22;6277;49.824;9.562;2023-03-04T15:25:00;8.50;56.40
12426;DHT22;6277;49.824;9.562;2023-03-04T15:27:26;8.50;56.50
12426;DHT22;6277;49.824;9.562;2023-03-04T15:29:54;8.50;56.50
12426;DHT22;6277;49.824;9.562;2023-03-04T15:32:26;8.40;56.50
12426;DHT22;6277;49.824;9.562;2023-03-04T15:34:52;8.40;56.50
12426;DHT22;6277;49.824;9.562;2023-03-04T15:37:24;8.40;56.50
12426;DHT22;6277;49.824;9.562;2023-03-04T15:39:50;8.40;56.60
12426;DHT22;6277;49.824;9.562;2023-03-04T15:42:16;8.30;56.60
12426;DHT22;6277;49.824;9.562;2023-03-04T15:44:42;8.30;56.60
12426;DHT22;6277;49.824;9.562;2023-03-04T15:47:09;8.30;56.60
12426;DHT22;6277;49.824;9.562;2023-03-04T15:49:37;8.30;56.70
12426;DHT22;6277;49.824;9.562;2023-03-04T15:52:05;8.20;56.70
12426;DHT22;6277;49.824;9.562;2023-03-04T15:54:30;8.20;56.60
12426;DHT22;6277;49.824;9.562;2023-03-04T15:56:57;8.20;56.60
12426;DHT22;6277;49.824;9.562;2023-03-04T15:59:24;8.20;56.60
12426;DHT22;6277;49.824;9.562;2023-03-04T16:01:50;8.20;56.60
12426;DHT22;6277;49.824;9.562;2023-03-04T16:04:16;8.10;56.60
12426;DHT22;6277;49.824;9.562;2023-03-04T16:06:43;8.10;56.60
12426;DHT22;6277;49.824;9.562;2023-03-04T16:09:15;8.10;56.60
12426;DHT22;6277;49.824;9.562;2023-03-04T16:11:43;8.00;56.60
12426;DHT22;6277;49.824;9.562;2023-03-04T16:14:12;8.00;56.70
12426;DHT22;6277;49.824;9.562;2023-03-04T16:16:39;8.00;56.70
12426;DHT22;6277;49.824;9.562;2023-03-04T16:19:05;8.00;56.70
12426;DHT22;6277;49.824;9.562;2023-03-04T16:21:31;7.90;56.80
12426;DHT22;6277;49.824;9.562;2023-03-04T16:23:57;7.90;56.80
12426;DHT22;6277;49.824;9.562;2023-03-04T16:26:23;7.90;56.80
12426;DHT22;6277;49.824;9.562;2023-03-04T16:28:51;7.90;56.80
12426;DHT22;6277;49.824;9.562;2023-03-04T16:31:21;7.90;56.80
12426;DHT22;6277;49.824;9.562;2023-03-04T16:33:47;7.90;56.90
12426;DHT22;6277;49.824;9.562;2023-03-04T16:36:24;7.90;56.90
12426;DHT22;6277;49.824;9.562;2023-03-04T16:38:54;7.90;56.90
12426;DHT22;6277;49.824;9.562;2023-03-04T16:41:25;7.90;56.80
12426;DHT22;6277;49.824;9.562;2023-03-04T16:43:52;7.90;56.90
12426;DHT22;6277;49.824;9.562;2023-03-04T16:46:17;7.90;56.90
12426;DHT22;6277;49.824;9.562;2023-03-04T16:48:43;7.80;56.80
12426;DHT22;6277;49.824;9.562;2023-03-04T16:51:14;7.80;56.90
12426;DHT22;6277;49.824;9.562;2023-03-04T16:53:43;7.80;57.00
12426;DHT22;6277;49.824;9.562;2023-03-04T16:56:15;7.80;57.00
12426;DHT22;6277;49.824;9.562;2023-03-04T16:58:41;7.80;57.50
12426;DHT22;6277;49.824;9.562;2023-03-04T17:01:17;7.80;57.00
12426;DHT22;6277;49.824;9.562;2023-03-04T17:03:42;7.80;57.00
12426;DHT22;6277;49.824;9.562;2023-03-04T17:06:09;7.70;56.90
12426;DHT22;6277;49.824;9.562;2023-03-04T17:08:35;7.70;57.00
12426;DHT22;6277;49.824;9.562;2023-03-04T17:11:00;7.70;57.00
12426;DHT22;6277;49.824;9.562;2023-03-04T17:13:26;7.70;56.90
12426;DHT22;6277;49.824;9.562;2023-03-04T17:15:51;7.70;57.00
12426;DHT22;6277;49.824;9.562;2023-03-04T17:18:17;7.70;57.00
12426;DHT22;6277;49.824;9.562;2023-03-04T17:20:42;7.70;57.10
12426;DHT22;6277;49.824;9.562;2023-03-04T17:23:08;7.60;57.00
12426;DHT22;6277;49.824;9.562;2023-03-04T17:25:34;7.60;57.20
12426;DHT22;6277;49.824;9.562;2023-03-04T17:27:59;7.60;57.20
12426;DHT22;6277;49.824;9.562;2023-03-04T17:30:25;7.60;57.20
12426;DHT22;6277;49.824;9.562;2023-03-04T17:32:50;7.60;57.20
12426;DHT22;6277;49.824;9.562;2023-03-04T17:35:16;7.60;57.20
12426;DHT22;6277;49.824;9.562;2023-03-04T17:37:41;7.60;57.10
12426;DHT22;6277;49.824;9.562;2023-03-04T17:40:08;7.60;57.10
12426;DHT22;6277;49.824;9.562;2023-03-04T17:42:39;7.60;57.20